sensor_id;sensor_type;location;lat;lon;timestamp;pressure;altitude;pressure_sealevel;temperature;humidity
57594;BME280;43423;46.510;6.686;2023-12-04T00:00:46;96510.63;;;-0.28;84.67
57594;BME280;43423;46.510;6.686;2023-12-04T00:03:32;96500.56;;;-0.27;84.91
57594;BME280;43423;46.510;6.686;2023-12-04T00:05:58;96506.72;;;-0.26;84.90
57594;BME280;43423;46.510;6.686;2023-12-04T00:08:23;96500.72;;;-0.38;84.70
57594;BME280;43423;46.510;6.686;2023-12-04T00:10:49;96487.88;;;-0.61;86.25
57594;BME280;43423;46.510;6.686;2023-12-04T00:13:16;96491.09;;;-0.42;85.42
57594;BME280;43423;46.510;6.686;2023-12-04T00:15:41;96481.97;;;-0.52;85.51
57594;BME280;43423;46.510;6.686;2023-12-04T00:18:07;96482.41;;;-0.57;85.21
57594;BME280;43423;46.510;6.686;2023-12-04T00:20:32;96470.44;;;-0.56;85.47
57594;BME280;43423;46.510;6.686;2023-12-04T00:22:58;96466.88;;;-0.49;84.69
57594;BME280;43423;46.510;6.686;2023-12-04T00:25:24;96469.28;;;-0.55;84.29
57594;BME280;43423;46.510;6.686;2023-12-04T00:27:49;96460.19;;;-0.68;85.77
57594;BME280;43423;46.510;6.686;2023-12-04T00:30:15;96461.06;;;-0.48;84.69
57594;BME280;43423;46.510;6.686;2023-12-04T00:32:41;96453.47;;;-0.57;84.71
57594;BME280;43423;46.510;6.686;2023-12-04T00:35:06;96443.34;;;-0.49;84.70
57594;BME280;43423;46.510;6.686;2023-12-04T00:37:32;96445.06;;;-0.62;84.54
57594;BME280;43423;46.510;6.686;2023-12-04T00:40:02;96435.44;;;-0.63;84.93
57594;BME280;43423;46.510;6.686;2023-12-04T00:42:29;96442.38;;;-0.62;84.84
57594;BME280;43423;46.510;6.686;2023-12-04T00:44:55;96432.25;;;-0.54;84.89
57594;BME280;43423;46.510;6.686;2023-12-04T00:47:21;96429.38;;;-0.74;85.39
57594;BME280;43423;46.510;6.686;2023-12-04T00:49:46;96428.97;;;-0.73;85.75
57594;BME280;43423;46.510;6.686;2023-12-04T00:52:12;96417.06;;;-0.75;85.78
57594;BME280;43423;46.510;6.686;2023-12-04T00:54:41;96417.06;;;-0.75;86.59
57594;BME280;43423;46.510;6.686;2023-12-04T00:57:08;96407.59;;;-0.91;87.55
57594;BME280;43423;46.510;6.686;2023-12-04T00:59:34;96413.16;;;-1.05;88.58
57594;BME280;43423;46.510;6.686;2023-12-04T01:02:00;96416.44;;;-0.87;88.03
57594;BME280;43423;46.510;6.686;2023-12-04T01:04:26;96409.66;;;-0.71;87.90
57594;BME280;43423;46.510;6.686;2023-12-04T01:06:52;96406.94;;;-0.68;87.80
57594;BME280;43423;46.510;6.686;2023-12-04T01:09:17;96397.63;;;-0.63;86.77
57594;BME280;43423;46.510;6.686;2023-12-04T01:11:43;96402.22;;;-0.60;85.95
57594;BME280;43423;46.510;6.686;2023-12-04T01:14:09;96399.25;;;-0.69;86.60
57594;BME280;43423;46.510;6.686;2023-12-04T01:16:35;96406.72;;;-0.80;87.86
57594;BME280;43423;46.510;6.686;2023-12-04T01:19:00;96410.34;;;-0.64;87.94
57594;BME280;43423;46.510;6.686;2023-12-04T01:21:26;96400.44;;;-0.70;88.83
57594;BME280;43423;46.510;6.686;2023-12-04T01:23:51;96399.59;;;-0.67;88.96
57594;BME280;43423;46.510;6.686;2023-12-04T01:26:17;96398.53;;;-0.73;89.10
57594;BME280;43423;46.510;6.686;2023-12-04T01:28:43;96399.16;;;-0.62;89.37
57594;BME280;43423;46.510;6.686;2023-12-04T01:31:08;96416.06;;;-0.58;88.91
57594;BME280;43423;46.510;6.686;2023-12-04T01:33:34;96408.59;;;-0.47;88.52
57594;BME280;43423;46.510;6.686;2023-12-04T01:36:02;96401.94;;;-0.39;88.49
57594;BME280;43423;46.510;6.686;2023-12-04T01:38:27;96404.63;;;-0.39;88.83
57594;BME280;43423;46.510;6.686;2023-12-04T01:40:53;96403.22;;;-0.47;89.27
57594;BME280;43423;46.510;6.686;2023-12-04T01:43:19;96404.53;;;-0.32;89.19
57594;BME280;43423;46.510;6.686;2023-12-04T01:45:44;96404.66;;;-0.42;89.29
57594;BME280;43423;46.510;6.686;2023-12-04T01:48:10;96401.94;;;-0.39;89.32
57594;BME280;43423;46.510;6.686;2023-12-04T01:50:37;96404.88;;;-0.30;88.86
57594;BME280;43423;46.510;6.686;2023-12-04T01:53:03;96410.88;;;-0.18;88.84
57594;BME280;43423;46.510;6.686;2023-12-04T01:55:29;96414.00;;;-0.20;89.13
57594;BME280;43423;46.510;6.686;2023-12-04T01:57:55;96407.88;;;-0.24;89.64
57594;BME280;43423;46.510;6.686;2023-12-04T02:00:21;96412.06;;;-0.19;89.30
57594;BME280;43423;46.510;6.686;2023-12-04T02:02:47;96410.38;;;-0.10;89.68
57594;BME280;43423;46.510;6.686;2023-12-04T02:05:14;96407.25;;;-0.08;88.76
57594;BME280;43423;46.510;6.686;2023-12-04T02:07:42;96402.75;;;-0.15;88.05
57594;BME280;43423;46.510;6.686;2023-12-04T02:10:09;96398.56;;;-0.19;89.50
57594;BME280;43423;46.510;6.686;2023-12-04T02:12:34;96393.03;;;-0.12;89.80
57594;BME280;43423;46.510;6.686;2023-12-04T02:15:00;96380.38;;;-0.15;89.24
57594;BME280;43423;46.510;6.686;2023-12-04T02:17:27;96386.00;;;-0.06;88.79
57594;BME280;43423;46.510;6.686;2023-12-04T02:19:54;96389.69;;;-0.20;89.30
57594;BME280;43423;46.510;6.686;2023-12-04T02:22:20;96383.72;;;-0.08;88.86
57594;BME280;43423;46.510;6.686;2023-12-04T02:24:46;96380.63;;;-0.10;88.66
57594;BME280;43423;46.510;6.686;2023-12-04T02:27:18;96387.72;;;-0.16;89.97
57594;BME280;43423;46.510;6.686;2023-12-04T02:29:56;96375.94;;;-0.29;90.65
57594;BME280;43423;46.510;6.686;2023-12-04T02:32:23;96363.63;;;-0.34;92.14
57594;BME280;43423;46.510;6.686;2023-12-04T02:34:50;96363.13;;;-0.25;92.03
57594;BME280;43423;46.510;6.686;2023-12-04T02:37:17;96363.28;;;-0.36;93.01
57594;BME280;43423;46.510;6.686;2023-12-04T02:39:44;96363.94;;;-0.28;92.45
57594;BME280;43423;46.510;6.686;2023-12-04T02:42:12;96350.84;;;-0.30;92.64
57594;BME280;43423;46.510;6.686;2023-12-04T02:44:39;96346.97;;;-0.29;92.54
57594;BME280;43423;46.510;6.686;2023-12-04T02:47:05;96341.47;;;-0.21;92.94
57594;BME280;43423;46.510;6.686;2023-12-04T02:49:31;96328.19;;;-0.12;91.76
57594;BME280;43423;46.510;6.686;2023-12-04T02:51:56;96333.53;;;-0.09;91.27
57594;BME280;43423;46.510;6.686;2023-12-04T02:54:23;96329.78;;;-0.15;91.78
57594;BME280;43423;46.510;6.686;2023-12-04T02:56:48;96331.84;;;0.01;90.69
57594;BME280;43423;46.510;6.686;2023-12-04T02:59:14;96334.16;;;-0.01;90.46
57594;BME280;43423;46.510;6.686;2023-12-04T03:01:40;96324.31;;;-0.11;91.32
57594;BME280;43423;46.510;6.686;2023-12-04T03:04:05;96320.91;;;-0.15;91.62
57594;BME280;43423;46.510;6.686;2023-12-04T03:06:31;96324.94;;;-0.04;90.79
57594;BME280;43423;46.510;6.686;2023-12-04T03:08:57;96306.88;;;-0.07;91.33
57594;BME280;43423;46.510;6.686;2023-12-04T03:11:24;96306.44;;;-0.05;91.49
57594;BME280;43423;46.510;6.686;2023-12-04T03:13:50;96300.97;;;-0.02;90.97
57594;BME280;43423;46.510;6.686;2023-12-04T03:16:16;96294.81;;;-0.02;90.93
57594;BME280;43423;46.510;6.686;2023-12-04T03:18:43;96305.78;;;0.11;90.24
57594;BME280;43423;46.510;6.686;2023-12-04T03:21:08;96293.72;;;0.15;90.37
57594;BME280;43423;46.510;6.686;2023-12-04T03:23:35;96294.91;;;0.14;89.83
57594;BME280;43423;46.510;6.686;2023-12-04T03:26:00;96290.50;;;0.24;88.70
57594;BME280;43423;46.510;6.686;2023-12-04T03:28:26;96295.13;;;0.23;88.73
57594;BME280;43423;46.510;6.686;2023-12-04T03:30:51;96297.72;;;0.07;89.81
57594;BME280;43423;46.510;6.686;2023-12-04T03:33:17;96281.16;;;0.05;90.57
57594;BME280;43423;46.510;6.686;2023-12-04T03:35:43;96285.47;;;0.03;90.67
57594;BME280;43423;46.510;6.686;2023-12-04T03:38:10;96280.75;;;0.07;89.70
57594;BME280;43423;46.510;6.686;2023-12-04T03:40:35;96285.28;;;0.13;89.16
57594;BME280;43423;46.510;6.686;2023-12-04T03:43:01;96279.44;;;0.15;89.03
57594;BME280;43423;46.510;6.686;2023-12-04T03:45:26;96287.63;;;0.11;90.04
57594;BME280;43423;46.510;6.686;2023-12-04T03:47:52;96291.09;;;0.12;90.35
57594;BME280;43423;46.510;6.686;2023-12-04T03:50:18;96283.09;;;0.05;91.92
57594;BME280;43423;46.510;6.686;2023-12-04T03:52:43;96284.06;;;-0.06;91.92
57594;BME280;43423;46.510;6.686;2023-12-04T03:55:09;96272.50;;;-0.06;91.74
57594;BME280;43423;46.510;6.686;2023-12-04T03:57:35;96276.06;;;0.11;91.36
57594;BME280;43423;46.510;6.686;2023-12-04T04:00:00;96272.25;;;0.08;91.74
57594;BME280;43423;46.510;6.686;2023-12-04T04:02:27;96269.88;;;0.10;90.55
57594;BME280;43423;46.510;6.686;2023-12-04T04:04:52;96269.81;;;0.14;90.57
57594;BME280;43423;46.510;6.686;2023-12-04T04:07:19;96271.13;;;0.06;91.18
57594;BME280;43423;46.510;6.686;2023-12-04T04:09:44;96269.53;;;0.08;91.19
57594;BME280;43423;46.510;6.686;2023-12-04T04:12:10;96270.69;;;0.07;91.95
57594;BME280;43423;46.510;6.686;2023-12-04T04:14:37;96272.09;;;0.15;91.36
57594;BME280;43423;46.510;6.686;2023-12-04T04:17:03;96263.97;;;0.15;91.47
57594;BME280;43423;46.510;6.686;2023-12-04T04:19:29;96270.34;;;0.05;92.66
57594;BME280;43423;46.510;6.686;2023-12-04T04:21:55;96266.69;;;0.15;91.62
57594;BME280;43423;46.510;6.686;2023-12-04T04:24:20;96260.03;;;0.20;92.13
57594;BME280;43423;46.510;6.686;2023-12-04T04:26:46;96256.72;;;0.12;92.79
57594;BME280;43423;46.510;6.686;2023-12-04T04:29:11;96258.09;;;0.20;92.47
57594;BME280;43423;46.510;6.686;2023-12-04T04:31:37;96262.00;;;0.19;92.64
57594;BME280;43423;46.510;6.686;2023-12-04T04:34:02;96261.00;;;0.10;93.30
57594;BME280;43423;46.510;6.686;2023-12-04T04:36:28;96253.84;;;-0.01;93.87
57594;BME280;43423;46.510;6.686;2023-12-04T04:38:54;96253.44;;;0.01;94.85
57594;BME280;43423;46.510;6.686;2023-12-04T04:41:20;96260.81;;;0.20;93.98
57594;BME280;43423;46.510;6.686;2023-12-04T04:43:45;96250.69;;;0.24;93.87
57594;BME280;43423;46.510;6.686;2023-12-04T04:46:11;96236.81;;;0.22;95.07
57594;BME280;43423;46.510;6.686;2023-12-04T04:48:37;96241.03;;;0.23;93.87
57594;BME280;43423;46.510;6.686;2023-12-04T04:51:03;96250.69;;;0.24;93.61
57594;BME280;43423;46.510;6.686;2023-12-04T04:53:29;96223.38;;;0.19;94.40
57594;BME280;43423;46.510;6.686;2023-12-04T04:55:54;96209.28;;;0.27;93.34
57594;BME280;43423;46.510;6.686;2023-12-04T04:58:20;96209.78;;;0.22;93.31
57594;BME280;43423;46.510;6.686;2023-12-04T05:00:46;96204.03;;;0.20;93.84
57594;BME280;43423;46.510;6.686;2023-12-04T05:03:12;96241.00;;;0.27;93.66
57594;BME280;43423;46.510;6.686;2023-12-04T05:05:38;96236.25;;;0.31;94.15
57594;BME280;43423;46.510;6.686;2023-12-04T05:08:04;96208.59;;;0.23;94.36
57594;BME280;43423;46.510;6.686;2023-12-04T05:10:29;96218.16;;;0.28;94.28
57594;BME280;43423;46.510;6.686;2023-12-04T05:12:55;96198.69;;;0.37;93.41
57594;BME280;43423;46.510;6.686;2023-12-04T05:15:21;96185.16;;;0.37;92.42
57594;BME280;43423;46.510;6.686;2023-12-04T05:17:46;96200.16;;;0.41;92.78
57594;BME280;43423;46.510;6.686;2023-12-04T05:20:13;96215.59;;;0.21;93.69
57594;BME280;43423;46.510;6.686;2023-12-04T05:22:39;96214.63;;;0.31;95.36
57594;BME280;43423;46.510;6.686;2023-12-04T05:25:05;96170.06;;;0.19;95.73
57594;BME280;43423;46.510;6.686;2023-12-04T05:27:32;96186.97;;;0.23;94.77
57594;BME280;43423;46.510;6.686;2023-12-04T05:29:57;96180.41;;;0.24;94.54
57594;BME280;43423;46.510;6.686;2023-12-04T05:32:23;96172.19;;;0.28;93.83
57594;BME280;43423;46.510;6.686;2023-12-04T05:34:49;96190.84;;;0.22;93.93
57594;BME280;43423;46.510;6.686;2023-12-04T05:37:14;96192.22;;;0.31;94.50
57594;BME280;43423;46.510;6.686;2023-12-04T05:39:41;96202.91;;;0.38;94.94
57594;BME280;43423;46.510;6.686;2023-12-04T05:42:07;96204.28;;;0.46;94.47
57594;BME280;43423;46.510;6.686;2023-12-04T05:44:34;96203.09;;;0.47;94.99
57594;BME280;43423;46.510;6.686;2023-12-04T05:47:00;96200.16;;;0.41;93.66
57594;BME280;43423;46.510;6.686;2023-12-04T05:49:26;96188.28;;;0.35;94.01
57594;BME280;43423;46.510;6.686;2023-12-04T05:51:51;96188.00;;;0.30;94.77
57594;BME280;43423;46.510;6.686;2023-12-04T05:54:17;96185.38;;;0.26;94.08
57594;BME280;43423;46.510;6.686;2023-12-04T05:56:43;96170.59;;;0.31;94.77
57594;BME280;43423;46.510;6.686;2023-12-04T05:59:08;96154.38;;;0.31;94.01
57594;BME280;43423;46.510;6.686;2023-12-04T06:01:34;96153.31;;;0.44;93.78
57594;BME280;43423;46.510;6.686;2023-12-04T06:04:00;96133.28;;;0.42;93.87
57594;BME280;43423;46.510;6.686;2023-12-04T06:06:26;96140.13;;;0.46;92.48
57594;BME280;43423;46.510;6.686;2023-12-04T06:08:52;96122.66;;;0.51;92.96
57594;BME280;43423;46.510;6.686;2023-12-04T06:11:18;96107.06;;;0.39;93.43
57594;BME280;43423;46.510;6.686;2023-12-04T06:13:43;96098.91;;;0.22;92.68
57594;BME280;43423;46.510;6.686;2023-12-04T06:16:09;96111.19;;;0.27;93.91
57594;BME280;43423;46.510;6.686;2023-12-04T06:18:35;96103.84;;;0.27;94.41
57594;BME280;43423;46.510;6.686;2023-12-04T06:21:01;96111.03;;;0.34;93.18
57594;BME280;43423;46.510;6.686;2023-12-04T06:23:27;96105.69;;;0.31;92.94
57594;BME280;43423;46.510;6.686;2023-12-04T06:25:53;96099.94;;;0.28;93.03
57594;BME280;43423;46.510;6.686;2023-12-04T06:28:19;96116.34;;;0.38;92.85
57594;BME280;43423;46.510;6.686;2023-12-04T06:30:45;96140.13;;;0.46;92.65
57594;BME280;43423;46.510;6.686;2023-12-04T06:33:11;96137.19;;;0.41;93.88
57594;BME280;43423;46.510;6.686;2023-12-04T06:35:39;96127.53;;;0.40;95.53
57594;BME280;43423;46.510;6.686;2023-12-04T06:38:06;96128.38;;;0.53;95.16
57594;BME280;43423;46.510;6.686;2023-12-04T06:40:33;96104.91;;;0.50;95.08
57594;BME280;43423;46.510;6.686;2023-12-04T06:42:59;96115.72;;;0.50;95.22
57594;BME280;43423;46.510;6.686;2023-12-04T06:45:25;96114.94;;;0.33;95.85
57594;BME280;43423;46.510;6.686;2023-12-04T06:47:52;96099.72;;;0.39;96.47
57594;BME280;43423;46.510;6.686;2023-12-04T06:50:19;96082.94;;;0.48;95.96
57594;BME280;43423;46.510;6.686;2023-12-04T06:52:45;96077.84;;;0.50;95.38
57594;BME280;43423;46.510;6.686;2023-12-04T06:55:12;96088.81;;;0.43;95.71
57594;BME280;43423;46.510;6.686;2023-12-04T06:57:38;96070.66;;;0.43;96.62
57594;BME280;43423;46.510;6.686;2023-12-04T07:00:04;96063.59;;;0.30;97.32
57594;BME280;43423;46.510;6.686;2023-12-04T07:02:31;96096.06;;;0.30;97.71
57594;BME280;43423;46.510;6.686;2023-12-04T07:04:57;96122.47;;;0.42;97.16
57594;BME280;43423;46.510;6.686;2023-12-04T07:07:23;96128.38;;;0.53;97.52
57594;BME280;43423;46.510;6.686;2023-12-04T07:09:49;96111.13;;;0.47;98.29
57594;BME280;43423;46.510;6.686;2023-12-04T07:12:14;96087.66;;;0.60;97.38
57594;BME280;43423;46.510;6.686;2023-12-04T07:14:40;96090.34;;;0.60;96.42
57594;BME280;43423;46.510;6.686;2023-12-04T07:17:07;96059.94;;;0.56;97.02
57594;BME280;43423;46.510;6.686;2023-12-04T07:19:32;96100.84;;;0.58;96.98
57594;BME280;43423;46.510;6.686;2023-12-04T07:21:58;96101.84;;;0.48;97.71
57594;BME280;43423;46.510;6.686;2023-12-04T07:24:24;96112.50;;;0.55;97.21
57594;BME280;43423;46.510;6.686;2023-12-04T07:26:51;96091.81;;;0.65;97.69
57594;BME280;43423;46.510;6.686;2023-12-04T07:29:17;96099.94;;;0.65;98.15
57594;BME280;43423;46.510;6.686;2023-12-04T07:31:43;96076.50;;;0.58;99.01
57594;BME280;43423;46.510;6.686;2023-12-04T07:34:09;96057.47;;;0.62;99.03
57594;BME280;43423;46.510;6.686;2023-12-04T07:36:34;96089.59;;;0.60;98.41
57594;BME280;43423;46.510;6.686;2023-12-04T07:39:00;96067.97;;;0.76;98.78
57594;BME280;43423;46.510;6.686;2023-12-04T07:41:26;96089.28;;;0.74;98.04
57594;BME280;43423;46.510;6.686;2023-12-04T07:43:51;96090.53;;;0.86;97.71
57594;BME280;43423;46.510;6.686;2023-12-04T07:46:17;96082.94;;;0.97;97.99
57594;BME280;43423;46.510;6.686;2023-12-04T07:48:43;96094.44;;;1.01;97.69
57594;BME280;43423;46.510;6.686;2023-12-04T07:51:11;96083.84;;;1.06;96.82
57594;BME280;43423;46.510;6.686;2023-12-04T07:53:37;96084.44;;;0.98;95.63
57594;BME280;43423;46.510;6.686;2023-12-04T07:56:03;96055.16;;;1.09;95.33
57594;BME280;43423;46.510;6.686;2023-12-04T07:58:30;96052.59;;;1.18;94.76
57594;BME280;43423;46.510;6.686;2023-12-04T08:00:57;96038.56;;;1.23;93.92
57594;BME280;43423;46.510;6.686;2023-12-04T08:03:23;96056.41;;;1.21;94.31
57594;BME280;43423;46.510;6.686;2023-12-04T08:05:52;96066.31;;;1.27;94.35
57594;BME280;43423;46.510;6.686;2023-12-04T08:08:18;96078.47;;;1.35;94.11
57594;BME280;43423;46.510;6.686;2023-12-04T08:10:44;96074.16;;;1.38;94.06
57594;BME280;43423;46.510;6.686;2023-12-04T08:13:10;96072.88;;;1.43;93.57
57594;BME280;43423;46.510;6.686;2023-12-04T08:15:35;96078.84;;;1.21;94.37
57594;BME280;43423;46.510;6.686;2023-12-04T08:18:01;96076.63;;;1.32;93.15
57594;BME280;43423;46.510;6.686;2023-12-04T08:20:28;96093.44;;;1.40;94.01
57594;BME280;43423;46.510;6.686;2023-12-04T08:22:53;96093.22;;;1.34;94.63
57594;BME280;43423;46.510;6.686;2023-12-04T08:25:20;96093.00;;;1.42;95.36
57594;BME280;43423;46.510;6.686;2023-12-04T08:27:46;96095.94;;;1.34;95.94
57594;BME280;43423;46.510;6.686;2023-12-04T08:30:11;96105.91;;;1.37;95.01
57594;BME280;43423;46.510;6.686;2023-12-04T08:32:38;96108.28;;;1.35;94.69
57594;BME280;43423;46.510;6.686;2023-12-04T08:35:03;96124.94;;;1.34;95.10
57594;BME280;43423;46.510;6.686;2023-12-04T08:37:31;96127.25;;;1.35;95.04
57594;BME280;43423;46.510;6.686;2023-12-04T08:39:57;96130.88;;;1.45;94.48
57594;BME280;43423;46.510;6.686;2023-12-04T08:42:23;96121.66;;;1.43;95.57
57594;BME280;43423;46.510;6.686;2023-12-04T08:44:49;96108.31;;;1.48;96.40
57594;BME280;43423;46.510;6.686;2023-12-04T08:47:14;96091.03;;;1.58;95.66
57594;BME280;43423;46.510;6.686;2023-12-04T08:49:40;96086.47;;;1.55;94.74
57594;BME280;43423;46.510;6.686;2023-12-04T08:52:07;96086.47;;;1.55;94.68
57594;BME280;43423;46.510;6.686;2023-12-04T08:54:33;96066.16;;;1.47;95.09
57594;BME280;43423;46.510;6.686;2023-12-04T08:56:59;96066.50;;;1.49;95.20
57594;BME280;43423;46.510;6.686;2023-12-04T08:59:25;96079.28;;;1.49;95.01
57594;BME280;43423;46.510;6.686;2023-12-04T09:01:51;96076.56;;;1.49;94.83
57594;BME280;43423;46.510;6.686;2023-12-04T09:04:16;96080.22;;;1.58;94.45
57594;BME280;43423;46.510;6.686;2023-12-04T09:06:42;96080.97;;;1.59;95.02
57594;BME280;43423;46.510;6.686;2023-12-04T09:09:07;96076.97;;;1.63;94.95
57594;BME280;43423;46.510;6.686;2023-12-04T09:11:33;96068.31;;;1.68;95.54
57594;BME280;43423;46.510;6.686;2023-12-04T09:13:59;96062.13;;;1.68;95.44
57594;BME280;43423;46.510;6.686;2023-12-04T09:16:25;96049.56;;;1.74;94.65
57594;BME280;43423;46.510;6.686;2023-12-04T09:18:50;96034.84;;;1.75;95.31
57594;BME280;43423;46.510;6.686;2023-12-04T09:21:16;96040.47;;;1.81;93.54
57594;BME280;43423;46.510;6.686;2023-12-04T09:23:42;96040.63;;;1.61;93.64
57594;BME280;43423;46.510;6.686;2023-12-04T09:26:07;96046.16;;;1.57;93.81
57594;BME280;43423;46.510;6.686;2023-12-04T09:28:35;96052.03;;;1.68;94.90
57594;BME280;43423;46.510;6.686;2023-12-04T09:31:02;96054.22;;;1.74;95.52
57594;BME280;43423;46.510;6.686;2023-12-04T09:33:28;96061.94;;;1.75;96.06
57594;BME280;43423;46.510;6.686;2023-12-04T09:35:53;96074.94;;;1.80;96.28
57594;BME280;43423;46.510;6.686;2023-12-04T09:38:19;96079.28;;;1.78;96.44
57594;BME280;43423;46.510;6.686;2023-12-04T09:40:45;96074.09;;;1.83;95.77
57594;BME280;43423;46.510;6.686;2023-12-04T09:43:10;96075.81;;;1.77;95.84
57594;BME280;43423;46.510;6.686;2023-12-04T09:45:37;96078.19;;;1.75;95.66
57594;BME280;43423;46.510;6.686;2023-12-04T09:48:05;96075.81;;;1.77;95.85
57594;BME280;43423;46.510;6.686;2023-12-04T09:50:31;96081.47;;;1.83;96.37
57594;BME280;43423;46.510;6.686;2023-12-04T09:52:59;96077.03;;;1.89;97.01
57594;BME280;43423;46.510;6.686;2023-12-04T09:55:26;96082.44;;;1.89;95.68
57594;BME280;43423;46.510;6.686;2023-12-04T09:57:52;96081.69;;;1.88;94.60
57594;BME280;43423;46.510;6.686;2023-12-04T10:00:20;96075.41;;;1.91;94.65
57594;BME280;43423;46.510;6.686;2023-12-04T10:02:47;96078.75;;;1.83;93.22
57594;BME280;43423;46.510;6.686;2023-12-04T10:05:13;96085.28;;;1.85;93.74
57594;BME280;43423;46.510;6.686;2023-12-04T10:07:39;96093.06;;;1.83;93.93
57594;BME280;43423;46.510;6.686;2023-12-04T10:10:05;96085.69;;;1.84;93.41
57594;BME280;43423;46.510;6.686;2023-12-04T10:12:32;96081.22;;;1.77;93.38
57594;BME280;43423;46.510;6.686;2023-12-04T10:15:07;96078.59;;;1.74;93.57
57594;BME280;43423;46.510;6.686;2023-12-04T10:17:34;96086.19;;;1.66;94.46
57594;BME280;43423;46.510;6.686;2023-12-04T10:20:12;96077.84;;;1.73;94.39
57594;BME280;43423;46.510;6.686;2023-12-04T10:22:39;96095.44;;;1.81;94.65
57594;BME280;43423;46.510;6.686;2023-12-04T10:25:15;96086.03;;;1.86;94.75
57594;BME280;43423;46.510;6.686;2023-12-04T10:27:41;96078.13;;;1.91;94.61
57594;BME280;43423;46.510;6.686;2023-12-04T10:30:07;96064.91;;;1.93;92.51
57594;BME280;43423;46.510;6.686;2023-12-04T10:32:36;96055.25;;;1.92;93.81
57594;BME280;43423;46.510;6.686;2023-12-04T10:35:05;96053.09;;;2.00;93.65
57594;BME280;43423;46.510;6.686;2023-12-04T10:37:36;96051.13;;;2.01;92.03
57594;BME280;43423;46.510;6.686;2023-12-04T10:40:03;96044.97;;;2.13;91.99
57594;BME280;43423;46.510;6.686;2023-12-04T10:42:29;96045.84;;;2.10;92.41
57594;BME280;43423;46.510;6.686;2023-12-04T10:44:58;96034.19;;;1.96;91.85
57594;BME280;43423;46.510;6.686;2023-12-04T10:47:25;96036.16;;;1.96;93.98
57594;BME280;43423;46.510;6.686;2023-12-04T10:49:51;96015.66;;;1.95;95.08
57594;BME280;43423;46.510;6.686;2023-12-04T10:52:18;96022.72;;;1.92;94.53
57594;BME280;43423;46.510;6.686;2023-12-04T10:54:48;96025.66;;;1.98;94.33
57594;BME280;43423;46.510;6.686;2023-12-04T10:57:24;96021.97;;;1.92;95.70
57594;BME280;43423;46.510;6.686;2023-12-04T10:59:56;96014.78;;;1.85;95.95
57594;BME280;43423;46.510;6.686;2023-12-04T11:02:25;96021.50;;;1.81;96.16
57594;BME280;43423;46.510;6.686;2023-12-04T11:04:57;96013.78;;;1.79;96.56
57594;BME280;43423;46.510;6.686;2023-12-04T11:07:25;96009.56;;;1.78;98.06
57594;BME280;43423;46.510;6.686;2023-12-04T11:09:55;96010.22;;;1.82;97.74
57594;BME280;43423;46.510;6.686;2023-12-04T11:12:22;96010.75;;;1.77;98.95
57594;BME280;43423;46.510;6.686;2023-12-04T11:14:53;96012.28;;;1.78;99.31
57594;BME280;43423;46.510;6.686;2023-12-04T11:17:21;96009.00;;;1.71;100.00
57594;BME280;43423;46.510;6.686;2023-12-04T11:20:13;96010.00;;;1.77;100.00
57594;BME280;43423;46.510;6.686;2023-12-04T11:22:43;96014.75;;;1.73;100.00
57594;BME280;43423;46.510;6.686;2023-12-04T11:25:12;96005.09;;;1.72;100.00
57594;BME280;43423;46.510;6.686;2023-12-04T11:27:39;96000.22;;;1.66;100.00
57594;BME280;43423;46.510;6.686;2023-12-04T11:30:06;95986.97;;;1.56;100.00
57594;BME280;43423;46.510;6.686;2023-12-04T11:32:43;95981.34;;;1.63;100.00
57594;BME280;43423;46.510;6.686;2023-12-04T11:35:12;95972.22;;;1.57;100.00
57594;BME280;43423;46.510;6.686;2023-12-04T11:37:39;95971.38;;;1.73;100.00
57594;BME280;43423;46.510;6.686;2023-12-04T11:40:06;95976.16;;;1.68;100.00
57594;BME280;43423;46.510;6.686;2023-12-04T11:42:33;95963.56;;;1.62;100.00
57594;BME280;43423;46.510;6.686;2023-12-04T11:44:58;95963.78;;;1.55;100.00
57594;BME280;43423;46.510;6.686;2023-12-04T11:47:24;95958.53;;;1.35;100.00
57594;BME280;43423;46.510;6.686;2023-12-04T11:49:50;95960.50;;;1.34;100.00
57594;BME280;43423;46.510;6.686;2023-12-04T11:52:16;95959.72;;;1.34;100.00
57594;BME280;43423;46.510;6.686;2023-12-04T11:55:02;95952.00;;;1.32;100.00
57594;BME280;43423;46.510;6.686;2023-12-04T11:57:40;95950.53;;;1.44;100.00
57594;BME280;43423;46.510;6.686;2023-12-04T12:00:18;95944.91;;;1.51;100.00
57594;BME280;43423;46.510;6.686;2023-12-04T12:03:01;95937.00;;;1.57;100.00
57594;BME280;43423;46.510;6.686;2023-12-04T12:05:33;95926.50;;;1.59;100.00
57594;BME280;43423;46.510;6.686;2023-12-04T12:08:03;95930.19;;;1.65;100.00
57594;BME280;43423;46.510;6.686;2023-12-04T12:10:29;95912.50;;;1.73;100.00
57594;BME280;43423;46.510;6.686;2023-12-04T12:12:55;95920.56;;;1.77;100.00
57594;BME280;43423;46.510;6.686;2023-12-04T12:15:22;95915.56;;;1.75;100.00
57594;BME280;43423;46.510;6.686;2023-12-04T12:17:49;95906.56;;;1.78;100.00
57594;BME280;43423;46.510;6.686;2023-12-04T12:20:15;95914.47;;;1.85;100.00
57594;BME280;43423;46.510;6.686;2023-12-04T12:22:41;95906.66;;;1.87;100.00
57594;BME280;43423;46.510;6.686;2023-12-04T12:25:12;95897.47;;;1.98;100.00
57594;BME280;43423;46.510;6.686;2023-12-04T12:27:38;95893.88;;;2.01;100.00
57594;BME280;43423;46.510;6.686;2023-12-04T12:30:06;95900.50;;;2.00;100.00
57594;BME280;43423;46.510;6.686;2023-12-04T12:32:33;95898.41;;;2.04;100.00
57594;BME280;43423;46.510;6.686;2023-12-04T12:34:59;95894.94;;;2.03;100.00
57594;BME280;43423;46.510;6.686;2023-12-04T12:37:25;95884.84;;;2.04;100.00
57594;BME280;43423;46.510;6.686;2023-12-04T12:39:52;95885.94;;;2.06;100.00
57594;BME280;43423;46.510;6.686;2023-12-04T12:42:22;95883.34;;;2.03;100.00
57594;BME280;43423;46.510;6.686;2023-12-04T12:44:48;95875.88;;;2.07;100.00
57594;BME280;43423;46.510;6.686;2023-12-04T12:47:15;95868.25;;;2.02;100.00
57594;BME280;43423;46.510;6.686;2023-12-04T12:49:41;95864.56;;;2.08;100.00
57594;BME280;43423;46.510;6.686;2023-12-04T12:52:06;95853.59;;;2.12;100.00
57594;BME280;43423;46.510;6.686;2023-12-04T12:54:36;95860.34;;;1.94;100.00
57594;BME280;43423;46.510;6.686;2023-12-04T12:57:02;95850.13;;;2.11;100.00
57594;BME280;43423;46.510;6.686;2023-12-04T12:59:28;95847.09;;;2.09;100.00
57594;BME280;43423;46.510;6.686;2023-12-04T13:01:53;95841.75;;;2.18;100.00
57594;BME280;43423;46.510;6.686;2023-12-04T13:04:19;95835.81;;;2.11;100.00